Time;durP1;ratioP1;P1;durP2;ratioP2;P2;SDS_P1;SDS_P2;PMS_P1;PMS_P2;Temp;Humidity;BMP_temperature;BMP_pressure;BME280_temperature;BME280_humidity;BME280_pressure;Samples;Min_cycle;Max_cycle;Signal;HPM_P1;HPM_P2
2023/12/10 00:01:55;;;;;;;18.27;11.10;;;;;;;1.19;100.00;98299.28;5052028;28;20178;-57
2023/12/10 00:04:20;;;;;;;20.23;12.70;;;;;;;1.44;100.00;98325.59;5051941;28;20549;-58
2023/12/10 00:06:46;;;;;;;18.42;11.82;;;;;;;1.61;100.00;98336.03;5051834;28;20205;-57
2023/12/10 00:09:11;;;;;;;21.40;12.55;;;;;;;1.33;100.00;98253.75;5051901;28;20182;-57
2023/12/10 00:11:37;;;;;;;23.35;14.73;;;;;;;1.81;100.00;98300.47;5051864;28;20196;-57
2023/12/10 00:14:02;;;;;;;23.48;14.98;;;;;;;1.78;100.00;98270.00;5051794;28;20652;-57
2023/12/10 00:16:28;;;;;;;23.85;14.80;;;;;;;2.19;100.00;98322.03;5051728;28;20178;-57
2023/12/10 00:18:53;;;;;;;22.98;14.52;;;;;;;2.21;100.00;98310.91;5051380;28;20224;-57
2023/12/10 00:21:20;;;;;;;25.55;15.18;;;;;;;1.87;100.00;98243.31;5051694;28;20231;-57
2023/12/10 00:23:45;;;;;;;28.02;16.60;;;;;;;1.96;100.00;98282.06;5051907;28;20186;-57
2023/12/10 00:26:11;;;;;;;28.17;17.15;;;;;;;1.85;100.00;98260.38;5051418;28;20208;-57
2023/12/10 00:28:37;;;;;;;24.45;15.32;;;;;;;2.27;100.00;98317.50;5051498;28;20186;-57
2023/12/10 00:31:07;;;;;;;29.20;16.90;;;;;;;2.51;100.00;98352.34;5051540;28;20174;-57
2023/12/10 00:33:33;;;;;;;29.48;16.02;;;;;;;2.57;100.00;98350.34;5051566;28;20178;-57
2023/12/10 00:35:59;;;;;;;28.90;16.88;;;;;;;2.00;100.00;98275.94;5051416;28;20185;-57
2023/12/10 00:38:24;;;;;;;24.85;16.35;;;;;;;2.15;100.00;98290.69;5051389;28;20178;-57
2023/12/10 00:40:50;;;;;;;25.85;15.73;;;;;;;2.66;100.00;98352.59;5051445;28;20174;-57
2023/12/10 00:43:16;;;;;;;22.98;15.18;;;;;;;2.03;100.00;98240.13;5051365;28;20265;-57
2023/12/10 00:45:42;;;;;;;27.92;15.63;;;;;;;2.01;100.00;98252.13;5051273;28;20278;-57
2023/12/10 00:48:08;;;;;;;26.85;15.43;;;;;;;2.50;100.00;98336.16;5048704;28;20731;-57
2023/12/10 00:50:34;;;;;;;25.58;15.38;;;;;;;2.45;100.00;98342.34;5048833;28;20243;-57
2023/12/10 00:53:02;;;;;;;25.75;14.00;;;;;;;2.45;100.00;98338.06;5028774;28;20194;-57
2023/12/10 00:55:28;;;;;;;21.15;12.88;;;;;;;1.93;100.00;98277.06;5028941;28;20232;-57
2023/12/10 00:57:53;;;;;;;21.85;12.32;;;;;;;1.60;100.00;98265.53;5028856;28;20186;-57
2023/12/10 01:00:19;;;;;;;18.67;12.65;;;;;;;2.04;100.00;98325.19;5028864;28;20186;-57
2023/12/10 01:02:45;;;;;;;19.90;12.15;;;;;;;1.77;100.00;98283.63;5028758;28;20267;-57
2023/12/10 01:05:11;;;;;;;22.33;13.32;;;;;;;1.68;100.00;98244.84;5028795;28;20182;-57
2023/12/10 01:07:36;;;;;;;17.75;11.73;;;;;;;2.02;100.00;98329.47;5028689;28;20300;-57
2023/12/10 01:10:05;;;;;;;22.25;13.23;;;;;;;1.77;100.00;98326.13;5028764;28;20700;-57
2023/12/10 01:12:35;;;;;;;22.77;12.73;;;;;;;1.73;100.00;98327.97;5028683;28;20282;-56
2023/12/10 01:15:01;;;;;;;19.50;11.75;;;;;;;1.47;100.00;98306.81;5028703;28;20206;-57
2023/12/10 01:17:26;;;;;;;26.23;13.10;;;;;;;1.30;100.00;98292.06;5030809;28;20344;-57
2023/12/10 01:19:52;;;;;;;19.90;12.45;;;;;;;1.34;100.00;98314.03;5048963;28;20192;-57
2023/12/10 01:22:17;;;;;;;21.05;12.07;;;;;;;1.35;100.00;98302.94;5052585;28;20182;-57
2023/12/10 01:24:45;;;;;;;20.58;11.20;;;;;;;1.01;100.00;98220.06;5052539;28;20185;-57
2023/12/10 01:27:11;;;;;;;18.92;12.05;;;;;;;0.34;100.00;98122.19;5052443;28;20695;-57
2023/12/10 01:29:36;;;;;;;18.42;12.35;;;;;;;1.02;100.00;98230.22;5052783;28;20182;-57
2023/12/10 01:32:02;;;;;;;22.50;13.63;;;;;;;0.89;100.00;98249.31;5055104;28;20247;-57
2023/12/10 01:34:28;;;;;;;20.60;12.82;;;;;;;0.76;100.00;98216.69;5054544;28;20682;-57
2023/12/10 01:36:53;;;;;;;19.77;12.65;;;;;;;1.15;100.00;98256.94;5054687;28;20648;-57
2023/12/10 01:39:19;;;;;;;21.55;12.52;;;;;;;0.93;100.00;98194.84;5054683;28;20169;-57
2023/12/10 01:41:45;;;;;;;18.95;12.68;;;;;;;1.71;100.00;98304.22;5055034;28;20205;-57
2023/12/10 01:44:12;;;;;;;18.35;11.82;;;;;;;1.07;100.00;98195.19;5054694;28;20214;-57
2023/12/10 01:46:38;;;;;;;20.70;12.15;;;;;;;1.63;100.00;98298.56;5054181;28;20638;-57
2023/12/10 01:49:07;;;;;;;19.45;11.98;;;;;;;1.68;100.00;98296.69;5054260;28;20212;-57
2023/12/10 01:51:35;;;;;;;23.27;13.05;;;;;;;1.41;100.00;98238.19;5054533;28;20263;-57
2023/12/10 01:54:01;;;;;;;20.42;13.50;;;;;;;0.95;100.00;98187.16;5054411;28;20173;-57
2023/12/10 01:56:28;;;;;;;24.15;15.63;;;;;;;0.80;100.00;98185.97;5054133;28;20182;-57
2023/12/10 01:58:54;;;;;;;24.33;13.93;;;;;;;0.80;100.00;98216.53;5054422;28;20174;-57
2023/12/10 02:01:20;;;;;;;26.38;14.63;;;;;;;0.71;100.00;98172.72;5054343;28;20177;-57
2023/12/10 02:03:46;;;;;;;23.42;13.63;;;;;;;1.19;100.00;98263.59;5054332;28;20170;-57
2023/12/10 02:06:11;;;;;;;24.52;13.98;;;;;;;1.36;100.00;98271.47;5054067;28;20741;-57
2023/12/10 02:08:37;;;;;;;23.63;13.43;;;;;;;1.41;100.00;98263.69;5054187;28;20280;-57
2023/12/10 02:11:03;;;;;;;22.40;11.95;;;;;;;0.88;100.00;98152.63;5054156;28;20181;-57
2023/12/10 02:13:29;;;;;;;18.85;11.95;;;;;;;1.35;100.00;98241.78;5054079;28;20181;-57
2023/12/10 02:15:54;;;;;;;17.98;11.82;;;;;;;1.48;100.00;98260.88;5054067;28;20186;-57
2023/12/10 02:18:20;;;;;;;16.42;10.57;;;;;;;1.41;100.00;98261.94;5053712;28;20347;-57
2023/12/10 02:20:47;;;;;;;14.77;10.05;;;;;;;1.68;100.00;98278.00;5054009;28;20647;-57
2023/12/10 02:23:35;;;;;;;16.35;10.57;;;;;;;1.26;100.00;98219.19;5053772;28;20174;-57
2023/12/10 02:26:02;;;;;;;15.63;10.10;;;;;;;1.26;100.00;98195.41;5053468;28;20609;-57
2023/12/10 02:28:27;;;;;;;19.92;10.50;;;;;;;1.48;100.00;98222.66;5052615;28;20673;-57
2023/12/10 02:30:53;;;;;;;14.07;9.68;;;;;;;1.54;100.00;98234.31;5053794;28;20257;-57
2023/12/10 02:33:18;;;;;;;14.85;9.80;;;;;;;1.50;100.00;98256.56;5053725;28;20170;-57
2023/12/10 02:35:44;;;;;;;18.13;10.90;;;;;;;1.31;100.00;98211.38;5053626;28;20271;-57
2023/12/10 02:38:09;;;;;;;12.55;9.15;;;;;;;1.49;100.00;98247.25;5053343;28;20272;-57
2023/12/10 02:40:35;;;;;;;16.50;10.32;;;;;;;1.14;100.00;98176.28;5031086;28;20186;-57
2023/12/10 02:43:00;;;;;;;15.82;10.45;;;;;;;1.43;100.00;98183.75;5031142;28;20273;-57
2023/12/10 02:45:26;;;;;;;15.38;10.82;;;;;;;1.74;100.00;98212.31;5031090;28;20187;-57
2023/12/10 02:47:51;;;;;;;15.40;10.63;;;;;;;1.73;100.00;98199.63;5031036;28;20307;-57
2023/12/10 02:50:17;;;;;;;17.52;11.05;;;;;;;2.21;100.00;98264.97;5031021;28;20191;-57
2023/12/10 02:52:42;;;;;;;20.77;12.00;;;;;;;1.92;100.00;98211.63;5031074;28;20609;-57
2023/12/10 02:55:11;;;;;;;20.48;13.27;;;;;;;1.94;100.00;98207.31;5030925;28;20288;-57
2023/12/10 02:57:37;;;;;;;19.60;12.30;;;;;;;2.34;100.00;98262.78;5030886;28;20333;-57
2023/12/10 03:00:03;;;;;;;19.50;13.00;;;;;;;2.32;100.00;98273.03;5030845;28;20273;-57
2023/12/10 03:02:28;;;;;;;23.38;14.45;;;;;;;2.04;100.00;98252.00;5030749;28;20703;-57
2023/12/10 03:04:54;;;;;;;20.17;12.63;;;;;;;2.07;100.00;98251.06;5030804;28;20187;-57
2023/12/10 03:07:19;;;;;;;16.88;11.98;;;;;;;1.94;100.00;98214.94;5030610;28;20740;-57
2023/12/10 03:09:45;;;;;;;24.40;14.95;;;;;;;2.30;100.00;98261.22;5030728;28;20248;-57
2023/12/10 03:12:10;;;;;;;19.23;13.50;;;;;;;2.08;100.00;98225.50;5047266;28;20186;-57
2023/12/10 03:14:36;;;;;;;24.15;14.85;;;;;;;1.62;100.00;98177.06;5052981;28;20184;-57
2023/12/10 03:17:02;;;;;;;25.85;15.98;;;;;;;2.16;100.00;98263.47;5052885;28;20181;-57
2023/12/10 03:19:27;;;;;;;27.00;16.92;;;;;;;2.18;100.00;98282.94;5052919;28;20225;-57
2023/12/10 03:21:53;;;;;;;24.40;16.27;;;;;;;1.66;100.00;98183.75;5052850;28;20181;-57
2023/12/10 03:24:18;;;;;;;29.23;16.55;;;;;;;1.64;100.00;98185.50;5052997;28;20178;-57
2023/12/10 03:26:44;;;;;;;24.88;15.75;;;;;;;2.02;100.00;98315.00;5052304;28;20666;-57
2023/12/10 03:29:09;;;;;;;29.77;16.80;;;;;;;1.84;100.00;98285.06;5052419;28;20231;-57
2023/12/10 03:31:35;;;;;;;32.85;17.30;;;;;;;2.08;100.00;98332.66;5052594;28;20659;-57
2023/12/10 03:34:00;;;;;;;33.90;19.05;;;;;;;2.18;100.00;98326.34;5052529;28;20181;-57
2023/12/10 03:36:26;;;;;;;29.70;17.98;;;;;;;2.03;100.00;98303.91;5049852;28;20510;-57
2023/12/10 03:38:51;;;;;;;32.10;18.85;;;;;;;2.19;100.00;98315.22;5049964;28;20209;-57
2023/12/10 03:41:17;;;;;;;34.75;18.40;;;;;;;2.21;100.00;98312.59;5049980;28;20197;-57
2023/12/10 03:43:42;;;;;;;33.60;18.02;;;;;;;1.70;100.00;98243.91;5049963;28;20178;-57
2023/12/10 03:46:08;;;;;;;34.42;19.02;;;;;;;1.88;100.00;98291.69;5049731;28;20210;-57
2023/12/10 03:48:33;;;;;;;36.83;20.85;;;;;;;1.74;100.00;98268.44;5049827;28;20251;-57
2023/12/10 03:50:59;;;;;;;57.80;27.48;;;;;;;1.82;100.00;98321.72;5069528;28;20268;-57
2023/12/10 03:53:24;;;;;;;38.03;21.05;;;;;;;1.58;100.00;98291.97;5069610;28;20246;-57
2023/12/10 03:55:49;;;;;;;36.15;20.45;;;;;;;1.47;100.00;98312.72;5069599;28;20188;-57
2023/12/10 03:58:15;;;;;;;34.47;18.08;;;;;;;1.02;100.00;98250.59;5069597;28;20184;-57
2023/12/10 04:00:41;;;;;;;35.60;20.25;;;;;;;1.29;100.00;98264.94;5069616;28;20690;-57
2023/12/10 04:03:06;;;;;;;30.92;18.65;;;;;;;1.69;100.00;98313.66;5069493;28;20189;-57
2023/12/10 04:05:31;;;;;;;28.27;18.00;;;;;;;1.39;100.00;98273.94;5069499;28;20716;-57
2023/12/10 04:07:57;;;;;;;30.95;18.08;;;;;;;1.61;100.00;98305.44;5069344;28;20209;-57
2023/12/10 04:10:23;;;;;;;30.05;18.15;;;;;;;1.27;100.00;98259.06;5069411;28;20223;-57
2023/12/10 04:12:48;;;;;;;35.50;20.63;;;;;;;1.34;100.00;98254.59;5069319;28;20323;-57
2023/12/10 04:15:18;;;;;;;37.00;21.95;;;;;;;1.23;100.00;98224.38;5069355;28;20533;-57
2023/12/10 04:17:44;;;;;;;39.03;22.25;;;;;;;1.45;100.00;98289.00;5069144;28;20225;-57
2023/12/10 04:20:11;;;;;;;35.90;22.13;;;;;;;1.64;100.00;98282.38;5069361;28;20323;-57
2023/12/10 04:22:56;;;;;;;35.40;20.65;;;;;;;1.71;100.00;98263.41;5047331;28;20311;-57
2023/12/10 04:25:21;;;;;;;40.25;21.20;;;;;;;1.44;100.00;98198.13;5049262;28;20242;-57
2023/12/10 04:27:47;;;;;;;32.67;20.13;;;;;;;1.96;100.00;98273.56;5049109;28;20247;-57
2023/12/10 04:30:13;;;;;;;35.90;20.00;;;;;;;1.48;100.00;98203.97;5049119;28;20700;-57
2023/12/10 04:32:38;;;;;;;34.72;19.52;;;;;;;1.30;100.00;98200.34;5049368;28;20201;-57
2023/12/10 04:35:04;;;;;;;40.40;22.13;;;;;;;1.51;100.00;98257.38;5049123;28;20182;-57
2023/12/10 04:37:29;;;;;;;34.38;20.40;;;;;;;1.88;100.00;98301.91;5049040;28;20232;-57
2023/12/10 04:39:55;;;;;;;29.92;18.17;;;;;;;1.20;100.00;98218.53;5049049;28;20184;-57
2023/12/10 04:42:20;;;;;;;25.92;17.75;;;;;;;1.76;100.00;98299.78;5048996;28;20190;-57
2023/12/10 04:44:46;;;;;;;29.75;17.67;;;;;;;1.69;100.00;98257.56;5048885;28;20272;-57
2023/12/10 04:47:12;;;;;;;36.28;19.73;;;;;;;2.03;100.00;98286.06;5048855;28;20225;-57
2023/12/10 04:49:37;;;;;;;40.95;22.65;;;;;;;2.29;100.00;98301.22;5048884;28;20782;-57
2023/12/10 04:52:03;;;;;;;33.92;19.88;;;;;;;1.96;100.00;98254.00;5048256;28;20310;-57
2023/12/10 04:54:28;;;;;;;45.35;24.67;;;;;;;2.13;100.00;98302.69;5050379;28;20189;-57
2023/12/10 04:56:54;;;;;;;46.88;26.13;;;;;;;1.86;100.00;98257.78;5051536;28;20265;-57
2023/12/10 04:59:19;;;;;;;43.33;25.33;;;;;;;1.94;100.00;98255.78;5051224;28;20177;-57
2023/12/10 05:01:45;;;;;;;47.63;27.33;;;;;;;2.01;100.00;98267.44;5051224;28;20220;-57
2023/12/10 05:04:10;;;;;;;45.38;27.23;;;;;;;1.70;100.00;98209.94;5051225;28;20646;-57
2023/12/10 05:06:36;;;;;;;41.80;22.90;;;;;;;1.98;100.00;98267.53;5051186;28;20259;-56
2023/12/10 05:09:03;;;;;;;47.97;24.80;;;;;;;2.22;100.00;98292.13;5051169;28;20196;-56
2023/12/10 05:11:29;;;;;;;46.75;24.13;;;;;;;2.01;100.00;98269.13;5051178;28;20178;-57
2023/12/10 05:13:54;;;;;;;51.30;26.15;;;;;;;1.58;100.00;98210.41;5050877;28;20174;-57
2023/12/10 05:16:20;;;;;;;53.28;26.40;;;;;;;1.59;100.00;98227.34;5051085;28;20174;-57
2023/12/10 05:18:45;;;;;;;46.00;24.00;;;;;;;1.71;100.00;98248.13;5050775;28;20247;-57
2023/12/10 05:21:11;;;;;;;43.28;24.13;;;;;;;1.73;100.00;98261.66;5051097;28;20180;-56
2023/12/10 05:23:36;;;;;;;45.90;25.20;;;;;;;1.57;100.00;98237.59;5051346;28;20177;-57
2023/12/10 05:26:01;;;;;;;38.90;22.85;;;;;;;1.92;100.00;98318.78;5050946;28;20209;-56
2023/12/10 05:28:27;;;;;;;40.90;22.83;;;;;;;1.44;100.00;98279.69;5050964;28;20185;-56
2023/12/10 05:30:52;;;;;;;41.33;21.33;;;;;;;1.00;100.00;98231.97;5051020;28;20569;-56
2023/12/10 05:33:18;;;;;;;46.53;22.00;;;;;;;1.40;100.00;98290.88;5050644;28;20209;-57
2023/12/10 05:35:43;;;;;;;41.30;21.52;;;;;;;0.84;100.00;98225.72;5050926;28;20181;-58
2023/12/10 05:38:09;;;;;;;45.70;23.23;;;;;;;1.08;100.00;98268.22;5050940;28;20268;-57
2023/12/10 05:40:35;;;;;;;48.78;23.70;;;;;;;1.07;100.00;98289.44;5050921;28;20243;-58
2023/12/10 05:43:00;;;;;;;47.35;24.00;;;;;;;1.12;100.00;98286.78;5050847;28;20178;-58
2023/12/10 05:45:27;;;;;;;40.88;22.33;;;;;;;1.34;100.00;98329.31;5050815;28;20663;-57
2023/12/10 05:47:53;;;;;;;54.60;28.67;;;;;;;0.61;100.00;98242.63;5050670;28;20698;-57
2023/12/10 05:50:18;;;;;;;49.70;24.23;;;;;;;0.50;100.00;98245.50;5050525;28;20269;-57
2023/12/10 05:52:44;;;;;;;52.83;27.60;;;;;;;0.24;100.00;98181.88;5051042;28;20538;-57
2023/12/10 05:55:09;;;;;;;52.15;26.52;;;;;;;0.92;100.00;98300.16;5050657;28;20307;-57
2023/12/10 05:57:35;;;;;;;54.50;28.02;;;;;;;1.08;100.00;98321.72;5050704;28;20178;-57
2023/12/10 06:00:00;;;;;;;55.05;26.08;;;;;;;1.36;100.00;98335.19;5050565;28;20597;-57
2023/12/10 06:02:26;;;;;;;53.00;24.77;;;;;;;1.02;100.00;98250.59;5051231;28;20175;-57
2023/12/10 06:04:52;;;;;;;51.88;26.35;;;;;;;1.28;100.00;98273.47;5054286;28;20185;-57
2023/12/10 06:07:17;;;;;;;50.70;26.40;;;;;;;1.28;100.00;98259.91;5054057;28;20699;-57
2023/12/10 06:09:43;;;;;;;51.47;25.63;;;;;;;1.60;100.00;98301.25;5054166;28;20188;-57
2023/12/10 06:12:09;;;;;;;53.40;26.67;;;;;;;1.57;100.00;98318.34;5054088;28;20648;-57
2023/12/10 06:14:35;;;;;;;53.88;26.58;;;;;;;1.72;100.00;98335.66;5054063;28;20206;-57
2023/12/10 06:17:00;;;;;;;58.05;28.92;;;;;;;1.52;100.00;98332.97;5054211;28;20217;-57
2023/12/10 06:19:26;;;;;;;56.28;27.50;;;;;;;1.63;100.00;98331.72;5054055;28;20202;-58
2023/12/10 06:21:51;;;;;;;57.50;28.25;;;;;;;1.79;100.00;98330.31;5053938;28;20181;-57
2023/12/10 06:24:17;;;;;;;51.33;25.67;;;;;;;1.61;100.00;98312.25;5053787;28;20177;-57
2023/12/10 06:26:42;;;;;;;59.33;29.55;;;;;;;1.30;100.00;98266.59;5053507;28;20209;-57
2023/12/10 06:29:08;;;;;;;58.47;28.60;;;;;;;1.03;100.00;98247.16;5053732;28;20174;-58
2023/12/10 06:31:33;;;;;;;52.45;26.40;;;;;;;1.04;100.00;98260.69;5053720;28;20197;-57
2023/12/10 06:33:59;;;;;;;59.88;28.73;;;;;;;1.02;100.00;98265.88;5051016;28;20189;-57
2023/12/10 06:36:24;;;;;;;62.08;30.85;;;;;;;0.78;100.00;98225.09;5051198;28;20209;-57
2023/12/10 06:38:50;;;;;;;66.10;34.25;;;;;;;1.22;100.00;98328.88;5051125;28;20189;-57
2023/12/10 06:41:15;;;;;;;64.45;31.48;;;;;;;0.44;100.00;98225.34;5051114;28;20212;-57
2023/12/10 06:43:41;;;;;;;76.75;32.25;;;;;;;1.26;100.00;98316.00;5051073;28;20665;-56
2023/12/10 06:46:06;;;;;;;107.22;49.85;;;;;;;0.76;100.00;98242.16;5050945;28;20304;-56
2023/12/10 06:48:33;;;;;;;89.40;38.15;;;;;;;1.37;100.00;98329.22;5050948;28;20928;-56
2023/12/10 06:51:00;;;;;;;67.93;31.77;;;;;;;1.63;100.00;98341.09;5050937;28;20205;-57
2023/12/10 06:53:26;;;;;;;67.65;31.58;;;;;;;1.10;100.00;98223.13;5030678;28;20597;-57
2023/12/10 06:55:52;;;;;;;74.15;33.72;;;;;;;1.26;100.00;98247.22;5030896;28;20187;-57
2023/12/10 06:58:17;;;;;;;65.32;29.85;;;;;;;0.87;100.00;98204.41;5030713;28;20194;-57
2023/12/10 07:00:43;;;;;;;64.90;30.73;;;;;;;1.63;100.00;98357.22;5030841;28;20241;-57
2023/12/10 07:03:08;;;;;;;73.25;34.67;;;;;;;1.43;100.00;98288.25;5030755;28;20187;-57
2023/12/10 07:05:34;;;;;;;70.00;31.83;;;;;;;1.62;100.00;98309.66;5045569;28;20576;-57
2023/12/10 07:07:59;;;;;;;83.50;40.05;;;;;;;1.65;100.00;98303.63;5050523;28;20305;-57
2023/12/10 07:10:25;;;;;;;86.93;42.13;;;;;;;1.93;100.00;98370.63;5050796;28;20220;-57
2023/12/10 07:12:53;;;;;;;77.47;35.80;;;;;;;1.54;100.00;98265.75;5050488;28;20197;-57
2023/12/10 07:15:19;;;;;;;73.05;32.90;;;;;;;1.64;100.00;98271.38;5049870;28;20196;-57
2023/12/10 07:17:44;;;;;;;74.97;33.30;;;;;;;2.16;100.00;98375.75;5050170;28;20194;-57
2023/12/10 07:20:10;;;;;;;80.63;36.28;;;;;;;1.74;100.00;98303.28;5050390;28;20623;-57
2023/12/10 07:22:36;;;;;;;80.18;37.20;;;;;;;1.53;100.00;98315.06;5050346;28;20676;-57
2023/12/10 07:25:05;;;;;;;87.35;37.25;;;;;;;1.72;100.00;98377.31;5051817;28;20600;-57
2023/12/10 07:27:32;;;;;;;74.18;34.67;;;;;;;1.66;100.00;98328.22;5052500;28;20324;-57
2023/12/10 07:29:58;;;;;;;72.75;35.78;;;;;;;1.84;100.00;98353.94;5052622;28;20225;-57
2023/12/10 07:32:24;;;;;;;88.72;37.75;;;;;;;1.19;100.00;98281.44;5052770;28;20213;-57
2023/12/10 07:34:50;;;;;;;86.05;39.15;;;;;;;1.45;100.00;98346.78;5052570;28;20173;-57
2023/12/10 07:37:15;;;;;;;87.05;37.67;;;;;;;1.73;100.00;98378.13;5052076;28;20641;-57
2023/12/10 07:39:41;;;;;;;70.47;34.85;;;;;;;1.37;100.00;98306.28;5052465;28;20174;-57
2023/12/10 07:42:06;;;;;;;67.53;32.30;;;;;;;1.37;100.00;98279.97;5052389;28;20176;-57
2023/12/10 07:44:33;;;;;;;79.05;35.25;;;;;;;1.31;100.00;98275.91;5052295;28;20268;-57
2023/12/10 07:46:58;;;;;;;76.80;37.85;;;;;;;1.44;100.00;98272.06;5052238;28;20201;-57
2023/12/10 07:49:24;;;;;;;82.25;38.78;;;;;;;1.67;100.00;98323.09;5052272;28;20181;-57
2023/12/10 07:51:49;;;;;;;76.15;34.65;;;;;;;1.77;100.00;98355.03;5052197;28;20632;-57
2023/12/10 07:54:15;;;;;;;70.78;32.45;;;;;;;1.68;100.00;98324.75;5051861;28;20173;-57
2023/12/10 07:56:40;;;;;;;74.25;33.40;;;;;;;1.67;100.00;98312.03;5052109;28;20188;-57
2023/12/10 07:59:06;;;;;;;74.85;31.60;;;;;;;2.08;100.00;98365.81;5052054;28;20184;-57
2023/12/10 08:01:31;;;;;;;78.22;34.78;;;;;;;1.81;100.00;98322.59;5052044;28;20185;-57
2023/12/10 08:03:57;;;;;;;70.32;35.58;;;;;;;2.13;100.00;98379.25;5051925;28;20174;-58
2023/12/10 08:06:22;;;;;;;75.22;32.50;;;;;;;1.94;100.00;98336.59;5051858;28;20577;-57
2023/12/10 08:08:48;;;;;;;74.43;35.08;;;;;;;1.63;100.00;98298.56;5052231;28;20547;-57
2023/12/10 08:11:13;;;;;;;89.28;37.28;;;;;;;2.07;100.00;98330.16;5051772;28;20208;-57
2023/12/10 08:13:39;;;;;;;85.45;38.47;;;;;;;2.32;100.00;98339.41;5051883;28;20556;-57
2023/12/10 08:16:05;;;;;;;77.78;36.35;;;;;;;2.07;100.00;98302.94;5051708;28;20185;-57
2023/12/10 08:18:31;;;;;;;73.20;35.10;;;;;;;2.77;100.00;98401.53;5051602;28;20238;-57
2023/12/10 08:20:56;;;;;;;77.95;35.35;;;;;;;2.82;100.00;98401.34;5051709;28;20170;-57
2023/12/10 08:23:22;;;;;;;71.22;34.85;;;;;;;2.64;100.00;98364.56;5051317;28;20174;-57
2023/12/10 08:25:47;;;;;;;72.60;33.95;;;;;;;2.98;100.00;98403.25;5051013;28;20219;-57
2023/12/10 08:28:13;;;;;;;88.70;42.63;;;;;;;2.42;100.00;98361.16;5051181;28;20213;-57
2023/12/10 08:30:38;;;;;;;75.35;40.60;;;;;;;2.30;100.00;98315.66;5051285;28;20173;-57
2023/12/10 08:33:03;;;;;;;83.10;39.60;;;;;;;2.76;100.00;98361.56;5051519;28;20228;-57
2023/12/10 08:35:29;;;;;;;63.22;33.00;;;;;;;2.81;100.00;98344.31;5051459;28;20257;-57
2023/12/10 08:37:54;;;;;;;71.38;33.58;;;;;;;3.04;100.00;98377.47;5051461;28;20265;-57
2023/12/10 08:40:20;;;;;;;60.30;30.00;;;;;;;3.15;100.00;98395.78;5051428;28;20260;-57
2023/12/10 08:42:46;;;;;;;45.38;22.88;;;;;;;2.79;100.00;98319.72;5051463;28;20715;-57
2023/12/10 08:45:12;;;;;;;49.03;25.00;;;;;;;3.22;100.00;98391.25;5051266;28;20706;-57
2023/12/10 08:47:38;;;;;;;57.67;28.23;;;;;;;3.05;100.00;98361.28;5051303;28;20209;-57
2023/12/10 08:50:04;;;;;;;56.65;29.90;;;;;;;3.44;100.00;98421.00;5048635;28;20404;-57
2023/12/10 08:52:29;;;;;;;52.63;27.85;;;;;;;3.36;100.00;98409.44;5048843;28;20193;-58
2023/12/10 08:54:55;;;;;;;60.95;29.63;;;;;;;2.90;100.00;98330.34;5048862;28;20194;-57
2023/12/10 08:57:22;;;;;;;60.95;30.02;;;;;;;3.41;100.00;98413.47;5048887;28;20263;-57
2023/12/10 08:59:47;;;;;;;63.05;30.20;;;;;;;2.81;100.00;98320.50;5048790;28;20189;-57
2023/12/10 09:02:13;;;;;;;57.30;29.63;;;;;;;3.52;100.00;98419.00;5048709;28;20178;-57
2023/12/10 09:04:38;;;;;;;51.75;26.40;;;;;;;3.22;100.00;98356.28;5049018;28;20186;-57
2023/12/10 09:07:04;;;;;;;63.22;28.17;;;;;;;3.01;100.00;98361.44;5048687;28;20209;-57
2023/12/10 09:09:32;;;;;;;53.92;25.90;;;;;;;2.41;100.00;98302.50;5048723;28;20688;-57
2023/12/10 09:11:58;;;;;;;58.80;28.27;;;;;;;3.03;100.00;98398.00;5048694;28;20194;-57
2023/12/10 09:14:23;;;;;;;54.47;26.63;;;;;;;3.18;100.00;98400.78;5048434;28;20578;-57
2023/12/10 09:16:49;;;;;;;66.10;32.10;;;;;;;2.97;100.00;98350.50;5048548;28;20610;-57
2023/12/10 09:19:16;;;;;;;59.53;29.30;;;;;;;2.69;100.00;98293.69;5048491;28;20208;-57
2023/12/10 09:21:43;;;;;;;53.42;27.85;;;;;;;2.88;100.00;98310.00;5048503;28;20628;-57
2023/12/10 09:24:09;;;;;;;49.65;26.42;;;;;;;3.16;100.00;98341.19;5048627;28;20237;-57
2023/12/10 09:26:34;;;;;;;57.67;27.83;;;;;;;2.89;100.00;98321.88;5048554;28;20758;-57
2023/12/10 09:29:00;;;;;;;55.60;27.05;;;;;;;2.66;100.00;98290.44;5048415;28;20231;-57
2023/12/10 09:31:27;;;;;;;59.65;29.73;;;;;;;2.84;100.00;98311.00;5048564;28;20174;-57
2023/12/10 09:33:52;;;;;;;55.83;29.02;;;;;;;3.01;100.00;98325.66;5048464;28;20441;-57
2023/12/10 09:36:18;;;;;;;55.78;28.38;;;;;;;3.04;100.00;98310.22;5048440;28;20257;-57
2023/12/10 09:38:44;;;;;;;61.00;28.48;;;;;;;2.82;100.00;98287.25;5051114;28;20181;-57
2023/12/10 09:41:10;;;;;;;54.95;27.42;;;;;;;2.88;100.00;98312.53;5052229;28;20611;-57
2023/12/10 09:43:35;;;;;;;55.75;29.23;;;;;;;2.75;100.00;98282.44;5052504;28;20262;-57
2023/12/10 09:46:03;;;;;;;58.08;27.73;;;;;;;2.93;100.00;98287.63;5053641;28;20186;-57
2023/12/10 09:48:30;;;;;;;60.28;29.10;;;;;;;2.75;100.00;98239.00;5054567;28;20207;-57
2023/12/10 09:50:55;;;;;;;50.90;25.98;;;;;;;3.50;100.00;98335.56;5054248;28;20577;-57
2023/12/10 09:53:21;;;;;;;59.03;27.33;;;;;;;3.00;100.00;98260.09;5054410;28;20177;-57
2023/12/10 09:55:48;;;;;;;52.70;26.92;;;;;;;2.88;100.00;98232.50;5054470;28;20177;-57
2023/12/10 09:58:13;;;;;;;51.95;25.30;;;;;;;3.41;100.00;98303.53;5054357;28;20256;-57
2023/12/10 10:00:40;;;;;;;52.70;25.55;;;;;;;3.25;100.00;98253.06;5054430;28;20199;-57
2023/12/10 10:03:05;;;;;;;59.25;29.92;;;;;;;2.99;100.00;98215.81;5054272;28;20196;-57
2023/12/10 10:05:33;;;;;;;65.63;30.38;;;;;;;3.05;100.00;98205.38;5054280;28;20173;-57
2023/12/10 10:07:58;;;;;;;54.67;27.70;;;;;;;3.64;100.00;98299.97;5054208;28;20296;-57
2023/12/10 10:10:25;;;;;;;59.17;28.83;;;;;;;3.66;100.00;98301.59;5054153;28;20224;-57
2023/12/10 10:12:53;;;;;;;53.30;28.00;;;;;;;3.78;100.00;98302.78;5053802;28;20592;-57
2023/12/10 10:15:30;;;;;;;54.03;27.15;;;;;;;3.45;100.00;98241.09;5053996;28;20265;-57
2023/12/10 10:17:57;;;;;;;57.60;27.02;;;;;;;3.18;100.00;98256.78;5053829;28;20227;-57
2023/12/10 10:20:24;;;;;;;57.05;29.92;;;;;;;3.57;100.00;98296.84;5053974;28;20189;-57
2023/12/10 10:22:51;;;;;;;61.22;29.63;;;;;;;3.13;100.00;98199.91;5054138;28;20188;-57
2023/12/10 10:25:18;;;;;;;62.72;30.40;;;;;;;3.70;100.00;98287.78;5053802;28;20268;-57
2023/12/10 10:27:43;;;;;;;65.95;28.75;;;;;;;3.29;100.00;98222.22;5053851;28;20543;-57
2023/12/10 10:30:09;;;;;;;60.05;29.67;;;;;;;3.07;100.00;98198.47;5053602;28;20261;-57
2023/12/10 10:32:34;;;;;;;71.70;29.55;;;;;;;3.11;100.00;98200.00;5053821;28;20260;-57
2023/12/10 10:35:03;;;;;;;69.32;28.85;;;;;;;3.39;100.00;98295.06;5053719;28;20212;-57
2023/12/10 10:37:29;;;;;;;58.22;27.42;;;;;;;3.17;100.00;98260.25;5053629;28;20173;-58
2023/12/10 10:39:55;;;;;;;69.38;31.05;;;;;;;3.42;100.00;98292.41;5031080;28;20196;-58
2023/12/10 10:42:20;;;;;;;66.10;29.42;;;;;;;3.57;100.00;98286.63;5031039;28;20661;-58
2023/12/10 10:44:46;;;;;;;66.22;31.08;;;;;;;3.19;100.00;98238.84;5011175;28;20187;-58
2023/12/10 10:47:12;;;;;;;67.95;29.63;;;;;;;3.32;100.00;98249.41;5011235;28;20203;-58
2023/12/10 10:49:43;;;;;;;64.68;28.48;;;;;;;3.30;100.00;98269.06;4971037;28;20581;-57
2023/12/10 10:52:13;;;;;;;68.65;30.75;;;;;;;2.87;100.00;98165.22;4972289;28;20185;-58
2023/12/10 10:54:40;;;;;;;63.08;28.67;;;;;;;2.96;100.00;98153.78;4972295;28;20199;-57
2023/12/10 10:57:05;;;;;;;84.85;34.38;;;;;;;3.20;100.00;98203.91;4972133;28;20239;-57
2023/12/10 10:59:33;;;;;;;99.78;39.67;;;;;;;2.91;100.00;98161.66;4972053;28;20722;-58
2023/12/10 11:02:00;;;;;;;62.00;28.75;;;;;;;3.30;100.00;98206.00;4972074;28;20251;-57
2023/12/10 11:04:33;;;;;;;67.45;30.27;;;;;;;3.57;100.00;98244.88;4971871;28;20269;-57
2023/12/10 11:06:59;;;;;;;63.05;29.58;;;;;;;3.16;100.00;98167.38;4971921;28;20688;-57
2023/12/10 11:09:25;;;;;;;70.57;33.25;;;;;;;3.41;100.00;98178.22;4971869;28;20189;-57
2023/12/10 11:11:51;;;;;;;72.35;32.13;;;;;;;3.47;100.00;98172.84;4971791;28;20295;-58